createdAt,value
2022-12-23T00:04:02.081Z,34.40
2022-12-23T00:09:04.827Z,31.70
2022-12-23T00:14:14.668Z,30.00
2022-12-23T00:19:21.063Z,27.70
2022-12-23T00:24:23.935Z,25.40
2022-12-23T00:29:26.599Z,24.40
2022-12-23T00:34:29.239Z,27.20
2022-12-23T00:39:34.896Z,26.80
2022-12-23T00:44:37.889Z,19.30
2022-12-23T00:49:42.520Z,23.60
2022-12-23T00:54:45.133Z,14.80
2022-12-23T00:59:47.734Z,19.70
2022-12-23T01:04:53.516Z,18.90
2022-12-23T01:09:56.175Z,21.60
2022-12-23T01:14:58.812Z,21.20
2022-12-23T01:20:01.478Z,19.40
2022-12-23T01:25:04.651Z,18.70
2022-12-23T01:30:08.324Z,14.60
2022-12-23T01:35:11.009Z,14.80
2022-12-23T01:40:13.719Z,13.70
2022-12-23T01:45:16.308Z,15.60
2022-12-23T01:50:25.686Z,15.90
2022-12-23T01:55:31.155Z,15.00
2022-12-23T02:00:36.932Z,16.70
2022-12-23T02:05:40.105Z,16.30
2022-12-23T02:11:22.926Z,14.60
2022-12-23T02:16:27.454Z,18.30
2022-12-23T02:21:32.102Z,18.70
2022-12-23T02:26:40.852Z,13.50
2022-12-23T02:31:46.423Z,18.30
2022-12-23T02:37:05.079Z,16.50
2022-12-23T02:42:32.813Z,17.40
2022-12-23T02:47:42.327Z,12.70
2022-12-23T02:52:48.557Z,17.60
2022-12-23T03:02:58.116Z,17.20
2022-12-23T03:08:04.733Z,18.00
2022-12-23T03:13:09.322Z,19.00
2022-12-23T03:18:16.974Z,16.80
2022-12-23T03:23:40.542Z,18.50
2022-12-23T03:28:46.892Z,20.80
2022-12-23T03:33:58.091Z,19.20
2022-12-23T03:39:05.807Z,20.20
2022-12-23T03:44:14.792Z,25.90
2022-12-23T03:49:27.288Z,22.60
2022-12-23T03:54:37.081Z,23.00
2022-12-23T03:59:43.909Z,21.00
2022-12-23T04:04:49.439Z,23.40
2022-12-23T04:09:53.422Z,17.90
2022-12-23T04:14:56.262Z,21.80
2022-12-23T04:19:58.959Z,21.10
2022-12-23T04:25:01.682Z,21.30
2022-12-23T04:30:06.275Z,24.10
2022-12-23T04:35:10.153Z,26.20
2022-12-23T04:40:13.140Z,25.20
2022-12-23T04:45:15.837Z,27.40
2022-12-23T04:50:18.480Z,28.00
2022-12-23T04:55:21.184Z,23.00
2022-12-23T05:00:23.974Z,26.50
2022-12-23T05:05:26.837Z,24.70
2022-12-23T05:10:29.510Z,29.20
2022-12-23T05:15:33.108Z,27.90
2022-12-23T05:20:35.812Z,27.10
2022-12-23T05:25:39.272Z,25.40
2022-12-23T05:30:42.038Z,20.80
2022-12-23T05:35:44.629Z,24.60
2022-12-23T05:40:48.080Z,22.20
2022-12-23T05:45:51.763Z,25.20
2022-12-23T05:50:54.615Z,23.20
2022-12-23T05:55:57.300Z,25.30
2022-12-23T06:01:03.105Z,20.10
2022-12-23T06:06:06.182Z,23.30
2022-12-23T06:11:08.832Z,24.60
2022-12-23T06:16:11.730Z,25.10
2022-12-23T06:21:14.429Z,25.10
2022-12-23T06:26:17.266Z,24.10
2022-12-23T06:31:20.240Z,28.40
2022-12-23T06:36:23.092Z,29.00
2022-12-23T06:41:25.874Z,26.80
2022-12-23T06:46:28.650Z,21.80
2022-12-23T06:51:31.353Z,21.20
2022-12-23T06:56:34.283Z,24.60
2022-12-23T07:01:37.483Z,27.20
2022-12-23T07:06:40.504Z,23.50
2022-12-23T07:11:43.157Z,25.20
2022-12-23T07:16:46.375Z,24.70
2022-12-23T07:21:49.172Z,21.30
2022-12-23T07:26:52.160Z,23.20
2022-12-23T07:31:54.849Z,19.10
2022-12-23T07:36:57.689Z,24.10
2022-12-23T07:42:25.163Z,22.30
2022-12-23T07:47:23.508Z,26.20
2022-12-23T07:52:26.142Z,18.00
2022-12-23T07:57:29.398Z,21.80
2022-12-23T08:02:32.292Z,29.20
2022-12-23T08:07:35.558Z,25.90
2022-12-23T08:12:38.207Z,52.70
2022-12-23T08:17:41.002Z,31.20
2022-12-23T08:22:43.861Z,25.90
2022-12-23T08:27:46.577Z,23.60
2022-12-23T08:32:49.309Z,27.10
2022-12-23T08:37:51.953Z,25.20
2022-12-23T08:42:54.584Z,25.90
2022-12-23T08:47:57.235Z,23.30
2022-12-23T08:53:00.181Z,12.80
2022-12-23T08:58:02.888Z,25.70
2022-12-23T09:03:06.212Z,26.70
2022-12-23T09:08:09.228Z,26.60
2022-12-23T09:13:17.971Z,17.20
2022-12-23T09:18:25.378Z,24.20
2022-12-23T09:23:28.856Z,21.50
2022-12-23T09:28:31.683Z,29.70
2022-12-23T09:33:35.319Z,32.40
2022-12-23T09:38:38.004Z,27.00
2022-12-23T09:43:53.646Z,29.20
2022-12-23T09:49:18.757Z,34.00
2022-12-23T09:54:24.435Z,36.80
2022-12-23T09:59:35.621Z,28.40
2022-12-23T10:04:42.130Z,36.80
2022-12-23T10:09:49.134Z,34.90
2022-12-23T10:14:55.640Z,29.50
2022-12-23T10:20:02.370Z,33.30
2022-12-23T10:25:14.401Z,33.20
2022-12-23T10:30:54.068Z,33.60
2022-12-23T10:35:47.906Z,25.00
2022-12-23T10:40:52.523Z,32.60
2022-12-23T10:45:56.152Z,34.40
2022-12-23T10:51:05.004Z,30.30
2022-12-23T10:56:08.297Z,24.40
2022-12-23T11:01:21.765Z,34.50
2022-12-23T11:06:36.787Z,20.30
2022-12-23T11:11:46.337Z,35.90
2022-12-23T11:16:49.293Z,43.70
2022-12-23T11:21:58.888Z,38.30
2022-12-23T11:27:04.382Z,39.20
2022-12-23T11:32:30.064Z,42.90
2022-12-23T11:37:40.811Z,40.60
2022-12-23T11:42:43.986Z,36.30
2022-12-23T11:47:46.916Z,32.30
2022-12-23T11:52:52.597Z,32.00
2022-12-23T11:57:56.560Z,24.60
2022-12-23T12:03:02.150Z,25.20
2022-12-23T12:08:11.682Z,29.60
2022-12-23T12:13:23.215Z,26.10
2022-12-23T12:18:26.411Z,31.50
2022-12-23T12:23:42.736Z,25.60
2022-12-23T12:33:59.708Z,22.90
2022-12-23T12:39:02.411Z,28.70
2022-12-23T12:44:25.070Z,30.70
2022-12-23T12:49:37.937Z,25.60
2022-12-23T12:54:49.094Z,27.50
2022-12-23T13:00:03.573Z,30.90
2022-12-23T13:05:11.456Z,31.50
2022-12-23T13:10:21.355Z,31.40
2022-12-23T13:15:34.285Z,34.10
2022-12-23T13:20:48.469Z,35.30
2022-12-23T13:26:01.545Z,38.20
2022-12-23T13:31:15.815Z,33.40
2022-12-23T13:36:19.640Z,40.90
2022-12-23T13:41:24.309Z,43.00
2022-12-23T13:46:30.162Z,36.20
2022-12-23T13:51:49.867Z,32.00
2022-12-23T13:57:09.454Z,25.10
2022-12-23T14:02:17.985Z,39.20
2022-12-23T14:07:23.124Z,36.80
2022-12-23T14:12:29.662Z,42.50
2022-12-23T14:17:48.994Z,39.60
2022-12-23T14:23:19.581Z,38.40
2022-12-23T14:28:37.125Z,41.20
2022-12-23T14:33:39.825Z,38.80
2022-12-23T14:38:42.949Z,42.20
2022-12-23T14:44:17.546Z,34.70
2022-12-23T14:49:38.907Z,39.00
2022-12-23T14:55:00.179Z,36.70
2022-12-23T15:00:06.261Z,33.90
2022-12-23T15:05:09.865Z,35.80
2022-12-23T15:10:13.418Z,34.30
2022-12-23T15:15:22.748Z,42.80
2022-12-23T15:20:25.676Z,42.30
2022-12-23T15:25:32.375Z,51.70
2022-12-23T15:30:46.035Z,47.10
2022-12-23T15:35:49.389Z,62.30
2022-12-23T15:40:57.406Z,52.50
2022-12-23T15:46:08.443Z,55.30
2022-12-23T15:51:25.746Z,52.40
2022-12-23T16:01:45.066Z,48.70
2022-12-23T16:06:50.226Z,43.30
2022-12-23T16:11:56.753Z,42.90
2022-12-23T16:17:05.236Z,92.70
2022-12-23T16:22:12.984Z,52.50
2022-12-23T16:27:18.554Z,54.20
2022-12-23T16:32:21.477Z,50.40
2022-12-23T16:37:24.224Z,51.40
2022-12-23T16:42:26.925Z,69.80
2022-12-23T16:47:31.028Z,67.40
2022-12-23T16:52:33.691Z,74.20
2022-12-23T16:57:36.531Z,63.70
2022-12-23T17:02:39.558Z,68.20
2022-12-23T17:07:45.401Z,66.50
2022-12-23T17:17:53.422Z,32.00
2022-12-23T17:22:59.347Z,33.00
2022-12-23T17:28:02.086Z,51.00
2022-12-23T17:33:04.709Z,53.60
2022-12-23T17:38:13.827Z,58.40
2022-12-23T17:43:18.460Z,50.60
2022-12-23T17:48:25.236Z,64.10
2022-12-23T17:53:31.222Z,55.10
2022-12-23T17:58:33.887Z,59.00
2022-12-23T18:03:36.530Z,56.60
2022-12-23T18:08:39.963Z,47.50
2022-12-23T18:13:42.955Z,62.20
2022-12-23T18:18:47.021Z,75.40
2022-12-23T18:23:51.272Z,68.00
2022-12-23T18:28:54.838Z,33.40
2022-12-23T18:33:57.522Z,49.50
2022-12-23T18:39:00.275Z,48.70
2022-12-23T18:44:03.033Z,47.00
2022-12-23T18:49:05.916Z,45.70
2022-12-23T18:54:14.282Z,56.20
2022-12-23T18:59:27.336Z,56.70
2022-12-23T19:04:31.801Z,53.10
2022-12-23T19:09:34.491Z,54.50
2022-12-23T19:14:39.347Z,54.10
2022-12-23T19:19:42.208Z,44.90
2022-12-23T19:25:03.865Z,55.50
2022-12-23T19:30:09.337Z,54.90
2022-12-23T19:35:13.066Z,56.30
2022-12-23T19:40:15.744Z,49.60
2022-12-23T19:45:18.602Z,60.80
2022-12-23T19:50:22.354Z,55.10
2022-12-23T19:55:25.259Z,56.30
2022-12-23T20:00:28.097Z,56.20
2022-12-23T20:05:30.788Z,47.60
2022-12-23T20:10:33.457Z,58.20
2022-12-23T20:15:36.197Z,55.90
2022-12-23T20:20:39.018Z,53.00
2022-12-23T20:25:41.862Z,43.20
2022-12-23T20:30:45.659Z,44.40
2022-12-23T20:35:48.310Z,45.70
2022-12-23T20:40:51.035Z,42.30
2022-12-23T20:45:53.741Z,46.30
2022-12-23T20:50:57.198Z,43.60
2022-12-23T20:56:05.448Z,54.40
2022-12-23T21:01:09.733Z,38.60
2022-12-23T21:06:12.545Z,43.50
2022-12-23T21:11:15.728Z,27.00
2022-12-23T21:16:18.684Z,37.00
2022-12-23T21:21:26.243Z,31.30
2022-12-23T21:26:30.779Z,23.10
2022-12-23T21:31:36.347Z,14.10
2022-12-23T21:36:39.267Z,13.60
2022-12-23T21:41:43.145Z,11.80
2022-12-23T21:46:46.058Z,15.90
2022-12-23T21:51:48.893Z,8.80
2022-12-23T21:56:51.665Z,12.10
2022-12-23T22:01:54.481Z,13.00
2022-12-23T22:06:57.363Z,12.80
2022-12-23T22:12:00.192Z,11.20
2022-12-23T22:17:02.807Z,12.90
2022-12-23T22:22:05.584Z,11.70
2022-12-23T22:27:08.562Z,11.80
2022-12-23T22:32:11.246Z,20.10
2022-12-23T22:37:13.916Z,17.30
2022-12-23T22:42:16.569Z,17.80
2022-12-23T22:47:19.375Z,15.10
2022-12-23T22:52:22.523Z,21.30
2022-12-23T22:57:25.212Z,11.20
2022-12-23T23:02:28.287Z,10.20
2022-12-23T23:07:31.709Z,13.60
2022-12-23T23:12:34.366Z,10.50
2022-12-23T23:17:36.989Z,9.10
2022-12-23T23:22:39.643Z,10.20
2022-12-23T23:27:42.453Z,7.60
2022-12-23T23:32:45.247Z,11.00
2022-12-23T23:37:48.054Z,13.40
2022-12-23T23:42:51.000Z,11.60
2022-12-23T23:47:57.471Z,12.60
2022-12-23T23:53:00.172Z,14.10
2022-12-23T23:58:02.940Z,10.40
